Time;durP1;ratioP1;P1;durP2;ratioP2;P2;SDS_P1;SDS_P2;PMS_P1;PMS_P2;Temp;Humidity;BMP_temperature;BMP_pressure;BME280_temperature;BME280_humidity;BME280_pressure;Samples;Min_cycle;Max_cycle;Signal;HPM_P1;HPM_P2
2022/04/07 00:00:38;;;;;;;7.83;3.40;;;;;;;12.10;100.00;62093.81;5091945;28;20268;-72
2022/04/07 00:03:04;;;;;;;6.80;3.13;;;;;;;12.05;100.00;62093.03;5091856;28;20246;-70
2022/04/07 00:05:31;;;;;;;7.53;3.60;;;;;;;12.06;100.00;62089.53;5091675;28;20196;-73
2022/04/07 00:07:58;;;;;;;6.17;3.70;;;;;;;11.95;100.00;62077.75;5091481;28;20724;-71
2022/04/07 00:10:26;;;;;;;5.53;3.67;;;;;;;11.96;100.00;62081.34;5091658;28;20235;-72
2022/04/07 00:12:53;;;;;;;6.23;3.80;;;;;;;11.96;100.00;62078.81;5091678;28;20204;-72
2022/04/07 00:15:20;;;;;;;6.07;3.40;;;;;;;11.85;100.00;62072.63;5091520;28;20711;-71
2022/04/07 00:17:47;;;;;;;5.70;3.70;;;;;;;11.86;100.00;62062.97;5091297;28;20238;-71
2022/04/07 00:20:14;;;;;;;8.27;3.53;;;;;;;11.91;100.00;62078.56;5091281;28;20660;-70
2022/04/07 00:22:41;;;;;;;6.10;3.20;;;;;;;12.00;100.00;62082.53;5091703;28;20253;-72
2022/04/07 00:25:10;;;;;;;5.20;3.37;;;;;;;11.92;100.00;62073.97;5091437;28;20256;-72
2022/04/07 00:27:38;;;;;;;5.27;3.20;;;;;;;11.83;100.00;62064.88;5090818;28;20207;-73
2022/04/07 00:30:06;;;;;;;5.80;4.03;;;;;;;11.93;100.00;62075.59;5091398;28;20231;-72
2022/04/07 00:32:40;;;;;;;7.70;3.40;;;;;;;11.97;100.00;62074.78;5092416;28;20658;-72
2022/04/07 00:35:08;;;;;;;8.27;4.00;;;;;;;11.86;100.00;62065.53;5094958;28;20195;-71
2022/04/07 00:37:36;;;;;;;7.83;3.50;;;;;;;11.01;100.00;61983.09;5095100;28;20199;-71
2022/04/07 00:40:03;;;;;;;7.03;3.90;;;;;;;11.72;100.00;62055.59;5094988;28;20206;-72
2022/04/07 00:42:30;;;;;;;8.03;4.07;;;;;;;11.51;100.00;62035.63;5094792;28;20264;-71
2022/04/07 00:44:58;;;;;;;7.67;4.00;;;;;;;11.37;100.00;62015.50;5094718;28;20662;-71
2022/04/07 00:47:27;;;;;;;5.63;3.67;;;;;;;11.42;100.00;62023.97;5094667;28;20267;-71
2022/04/07 00:49:54;;;;;;;9.63;4.03;;;;;;;11.37;100.00;62018.06;5095192;28;20254;-71
2022/04/07 00:52:21;;;;;;;5.20;3.90;;;;;;;11.27;100.00;62007.88;5094898;28;20196;-71
2022/04/07 00:54:49;;;;;;;5.57;3.80;;;;;;;11.39;100.00;62018.19;5094633;28;20199;-73
2022/04/07 00:57:16;;;;;;;6.67;4.00;;;;;;;11.35;100.00;62013.38;5094521;28;20203;-71
2022/04/07 00:59:42;;;;;;;11.17;3.90;;;;;;;11.43;100.00;62021.94;5094737;28;20199;-71
2022/04/07 01:02:11;;;;;;;7.63;4.10;;;;;;;11.34;100.00;62012.28;5094418;28;20245;-72
2022/04/07 01:04:37;;;;;;;5.63;3.87;;;;;;;11.27;100.00;62007.34;5094637;28;20200;-71
2022/04/07 01:07:07;;;;;;;12.37;4.40;;;;;;;11.30;100.00;62008.00;5094626;28;20196;-72
2022/04/07 01:09:34;;;;;;;6.23;3.87;;;;;;;10.84;100.00;61961.78;5094274;28;20662;-71
2022/04/07 01:12:01;;;;;;;7.50;4.30;;;;;;;10.93;100.00;61971.97;5093936;28;20238;-70
2022/04/07 01:14:28;;;;;;;7.60;3.90;;;;;;;10.75;100.00;61950.13;5094334;28;20642;-70
2022/04/07 01:16:55;;;;;;;7.30;3.87;;;;;;;10.78;100.00;61952.81;5094653;28;20287;-71
2022/04/07 01:19:23;;;;;;;5.40;3.80;;;;;;;10.77;100.00;61954.81;5094233;28;20245;-71
2022/04/07 01:21:50;;;;;;;5.87;4.10;;;;;;;10.68;100.00;61947.72;5094114;28;20203;-72
2022/04/07 01:24:18;;;;;;;8.77;4.10;;;;;;;10.62;100.00;61941.31;5094076;28;20256;-71
2022/04/07 01:26:47;;;;;;;5.93;3.80;;;;;;;10.66;100.00;61942.50;5094210;28;20229;-72
2022/04/07 01:29:15;;;;;;;6.63;4.10;;;;;;;10.65;100.00;61941.41;5094729;28;20590;-72
2022/04/07 01:31:43;;;;;;;8.40;4.50;;;;;;;10.57;100.00;61930.84;5093982;28;20694;-71
2022/04/07 01:34:14;;;;;;;9.43;4.20;;;;;;;10.59;100.00;61935.53;5094315;28;20192;-71
2022/04/07 01:36:43;;;;;;;12.10;4.30;;;;;;;10.67;100.00;61944.09;5093853;28;20192;-71
2022/04/07 01:39:11;;;;;;;9.50;4.23;;;;;;;10.64;100.00;61937.81;5093625;28;20225;-71
2022/04/07 01:41:40;;;;;;;7.23;4.20;;;;;;;10.63;100.00;61939.81;5094524;28;20273;-72
2022/04/07 01:44:10;;;;;;;7.33;4.53;;;;;;;10.65;100.00;61939.41;5092565;28;20249;-71
2022/04/07 01:46:38;;;;;;;6.43;3.90;;;;;;;10.61;100.00;61934.59;5093685;28;20252;-72
2022/04/07 01:49:06;;;;;;;5.87;3.80;;;;;;;10.64;100.00;61943.44;5093313;28;20195;-71
2022/04/07 01:51:35;;;;;;;6.10;4.00;;;;;;;10.29;100.00;61900.31;5093260;28;20706;-72
2022/04/07 01:54:03;;;;;;;5.33;4.00;;;;;;;10.59;100.00;61938.06;5093535;28;20192;-73
2022/04/07 01:56:31;;;;;;;8.67;4.13;;;;;;;10.61;100.00;61940.22;5093426;28;20199;-72
2022/04/07 01:58:58;;;;;;;8.70;4.70;;;;;;;10.45;100.00;61917.97;5093604;28;20203;-73
2022/04/07 02:01:26;;;;;;;8.73;4.13;;;;;;;10.49;100.00;61922.28;5093313;28;20204;-72
2022/04/07 02:03:52;;;;;;;6.07;3.97;;;;;;;10.47;100.00;61917.59;5093980;28;20195;-72
2022/04/07 02:06:20;;;;;;;11.80;4.33;;;;;;;10.57;100.00;61928.28;5093343;28;20195;-71
2022/04/07 02:08:47;;;;;;;9.17;4.93;;;;;;;10.50;100.00;61922.81;5093435;28;20344;-71
2022/04/07 02:11:14;;;;;;;8.33;4.07;;;;;;;10.42;100.00;61914.78;5092869;28;20230;-72
2022/04/07 02:13:42;;;;;;;7.93;4.37;;;;;;;10.37;100.00;61909.41;5093048;28;20249;-72
2022/04/07 02:16:10;;;;;;;10.90;4.50;;;;;;;10.25;100.00;61894.03;5093266;28;20283;-73
2022/04/07 02:18:39;;;;;;;13.57;4.77;;;;;;;10.26;100.00;61897.66;5093374;28;20253;-71
2022/04/07 02:21:06;;;;;;;9.30;4.30;;;;;;;10.24;100.00;61895.50;5092991;28;20199;-73
2022/04/07 02:23:41;;;;;;;7.50;4.10;;;;;;;10.25;100.00;61896.56;5093047;28;20203;-71
2022/04/07 02:26:10;;;;;;;5.30;3.50;;;;;;;10.25;100.00;61899.13;5093197;28;20669;-72
2022/04/07 02:28:37;;;;;;;11.43;4.37;;;;;;;10.26;100.00;61900.19;5093173;28;20662;-71
2022/04/07 02:31:04;;;;;;;12.80;4.77;;;;;;;10.35;100.00;61909.28;5092646;28;20226;-71
2022/04/07 02:33:30;;;;;;;6.27;3.80;;;;;;;10.12;100.00;61880.09;5093175;28;20260;-72
2022/04/07 02:36:01;;;;;;;7.73;4.10;;;;;;;10.07;100.00;61877.28;5092693;28;20200;-72
2022/04/07 02:38:28;;;;;;;6.80;4.00;;;;;;;9.98;100.00;61867.66;5092659;28;20254;-71
2022/04/07 02:40:55;;;;;;;5.47;3.87;;;;;;;10.08;100.00;61878.34;5092774;28;20199;-71
2022/04/07 02:43:22;;;;;;;3.67;3.30;;;;;;;10.21;100.00;61897.38;5092665;28;20200;-73
2022/04/07 02:45:48;;;;;;;5.93;3.80;;;;;;;10.20;100.00;61896.84;5092365;28;20661;-73
2022/04/07 02:48:16;;;;;;;5.30;3.73;;;;;;;10.25;100.00;61898.56;5092975;28;20224;-71
2022/04/07 02:50:43;;;;;;;7.77;4.20;;;;;;;10.37;100.00;61909.41;5092303;28;20695;-71
2022/04/07 02:53:11;;;;;;;7.97;3.73;;;;;;;10.10;100.00;61880.50;5092511;28;20200;-71
2022/04/07 02:55:37;;;;;;;9.03;3.97;;;;;;;9.95;100.00;61866.97;5091700;28;20441;-72
2022/04/07 02:58:04;;;;;;;5.27;3.80;;;;;;;9.99;100.00;61868.69;5092291;28;20199;-73
2022/04/07 03:00:31;;;;;;;7.03;4.30;;;;;;;10.04;100.00;61874.06;5092333;28;20219;-72
2022/04/07 03:02:58;;;;;;;7.73;4.13;;;;;;;10.17;100.00;61888.00;5092097;28;20195;-72
2022/04/07 03:05:25;;;;;;;9.73;4.27;;;;;;;10.27;100.00;61901.25;5092149;28;20262;-71
2022/04/07 03:07:52;;;;;;;8.80;4.50;;;;;;;10.33;100.00;61905.13;5092358;28;20191;-73
2022/04/07 03:10:20;;;;;;;7.20;3.60;;;;;;;10.28;100.00;61902.34;5092037;28;20621;-72
2022/04/07 03:12:47;;;;;;;10.53;4.20;;;;;;;10.39;100.00;61913.56;5091851;28;20231;-73
2022/04/07 03:15:14;;;;;;;6.80;4.47;;;;;;;10.28;100.00;61901.78;5091304;28;20655;-72
2022/04/07 03:17:41;;;;;;;5.97;4.20;;;;;;;10.22;100.00;61892.81;5091911;28;20446;-72
2022/04/07 03:20:09;;;;;;;6.30;3.90;;;;;;;10.30;100.00;61901.94;5091994;28;20249;-72
2022/04/07 03:22:35;;;;;;;12.33;4.80;;;;;;;10.32;100.00;61906.63;5092037;28;20226;-72
2022/04/07 03:25:02;;;;;;;7.90;4.00;;;;;;;10.25;100.00;61894.03;5092231;28;20196;-70
2022/04/07 03:27:31;;;;;;;4.73;3.50;;;;;;;10.10;100.00;61886.13;5091900;28;20195;-72
2022/04/07 03:29:57;;;;;;;7.37;4.10;;;;;;;10.04;100.00;61879.16;5092512;28;20258;-72
2022/04/07 03:32:24;;;;;;;8.77;3.37;;;;;;;10.03;100.00;61878.06;5091495;28;20235;-72
2022/04/07 03:34:52;;;;;;;8.90;4.07;;;;;;;9.92;100.00;61866.31;5092061;28;20298;-73
2022/04/07 03:37:20;;;;;;;7.30;3.97;;;;;;;9.97;100.00;61866.56;5091905;28;20196;-71
2022/04/07 03:39:47;;;;;;;6.87;3.70;;;;;;;9.96;100.00;61866.03;5091678;28;20446;-71
2022/04/07 03:42:14;;;;;;;8.33;4.10;;;;;;;9.99;100.00;61868.69;5092609;28;20199;-71
2022/04/07 03:44:42;;;;;;;8.63;3.87;;;;;;;10.10;100.00;61881.03;5091679;28;20199;-71
2022/04/07 03:47:09;;;;;;;6.77;3.50;;;;;;;10.05;100.00;61877.66;5091794;28;20487;-71
2022/04/07 03:49:36;;;;;;;64.30;32.80;;;;;;;10.16;100.00;61890.00;5091571;28;20624;-71
2022/04/07 03:52:04;;;;;;;34.07;14.77;;;;;;;10.06;100.00;61876.22;5091562;28;20219;-71
2022/04/07 03:54:32;;;;;;;23.33;13.97;;;;;;;9.30;100.00;61795.94;5091623;28;20192;-72
2022/04/07 03:56:59;;;;;;;27.40;9.27;;;;;;;10.10;100.00;61880.50;5091527;28;20662;-71
2022/04/07 03:59:26;;;;;;;14.30;7.77;;;;;;;10.03;100.00;61878.06;5091697;28;20442;-72
2022/04/07 04:01:55;;;;;;;15.57;9.30;;;;;;;10.10;100.00;61883.06;5092106;28;20503;-72
2022/04/07 04:04:22;;;;;;;24.57;12.20;;;;;;;9.97;100.00;61869.66;5091448;28;20200;-71
2022/04/07 04:06:49;;;;;;;18.90;11.97;;;;;;;9.83;100.00;61857.19;5091863;28;20200;-72
2022/04/07 04:09:16;;;;;;;20.97;12.07;;;;;;;9.85;100.00;61854.25;5094844;28;20248;-74
2022/04/07 04:11:43;;;;;;;10.80;5.00;;;;;;;9.88;100.00;61862.03;5094168;28;20983;-73
2022/04/07 04:14:10;;;;;;;8.60;4.17;;;;;;;9.80;100.00;61853.47;5094200;28;20827;-71
2022/04/07 04:16:37;;;;;;;7.30;4.83;;;;;;;9.59;100.00;61823.34;5095456;28;20200;-72
2022/04/07 04:19:05;;;;;;;8.53;4.37;;;;;;;9.89;100.00;61860.53;5095244;28;20196;-72
2022/04/07 04:21:32;;;;;;;4.57;3.60;;;;;;;9.90;100.00;61859.06;5095101;28;20199;-71
2022/04/07 04:23:58;;;;;;;5.47;3.67;;;;;;;9.78;100.00;61848.78;5095141;28;20200;-72
2022/04/07 04:26:26;;;;;;;6.03;3.90;;;;;;;9.91;100.00;61862.69;5094973;28;20195;-72
2022/04/07 04:28:53;;;;;;;8.00;3.87;;;;;;;10.02;100.00;61869.38;5094911;28;20327;-71
2022/04/07 04:31:24;;;;;;;8.50;4.83;;;;;;;9.93;100.00;61867.38;5094875;28;20271;-72
2022/04/07 04:33:52;;;;;;;13.60;6.27;;;;;;;9.96;100.00;61868.03;5095048;28;20629;-71
2022/04/07 04:36:21;;;;;;;15.57;7.93;;;;;;;9.80;100.00;61845.81;5094704;28;20230;-72
2022/04/07 04:38:49;;;;;;;12.87;8.43;;;;;;;10.01;100.00;61870.84;5095014;28;20260;-73
2022/04/07 04:41:17;;;;;;;9.00;5.83;;;;;;;10.07;100.00;61877.81;5094808;28;20195;-71
2022/04/07 04:43:44;;;;;;;14.27;6.33;;;;;;;10.05;100.00;61877.66;5095515;28;20253;-72
2022/04/07 04:46:10;;;;;;;16.27;8.97;;;;;;;10.05;100.00;61875.13;5094637;28;20203;-73
2022/04/07 04:48:38;;;;;;;18.03;8.30;;;;;;;10.08;100.00;61878.34;5094813;28;20335;-70
2022/04/07 04:51:05;;;;;;;13.00;5.87;;;;;;;10.14;100.00;61887.34;5094967;28;20199;-72
2022/04/07 04:53:33;;;;;;;12.17;5.70;;;;;;;10.17;100.00;61891.09;5093662;28;20203;-72
2022/04/07 04:56:00;;;;;;;5.67;4.47;;;;;;;10.17;100.00;61893.63;5094411;28;20658;-73
2022/04/07 04:58:26;;;;;;;9.83;4.93;;;;;;;10.21;100.00;61894.81;5094076;28;20204;-73
2022/04/07 05:00:53;;;;;;;7.70;5.27;;;;;;;10.17;100.00;61893.09;5094253;28;20200;-73
2022/04/07 05:03:20;;;;;;;11.20;4.87;;;;;;;10.19;100.00;61890.13;5094639;28;20249;-72
2022/04/07 05:05:47;;;;;;;10.53;5.47;;;;;;;10.30;100.00;61909.56;5094059;28;20735;-73
2022/04/07 05:08:14;;;;;;;6.77;4.80;;;;;;;9.72;100.00;61839.81;5094981;28;20200;-71
2022/04/07 05:10:43;;;;;;;11.63;5.77;;;;;;;10.56;100.00;61929.78;5094164;28;20265;-71
2022/04/07 05:13:10;;;;;;;9.57;5.70;;;;;;;10.57;100.00;61933.38;5093993;28;20219;-72
2022/04/07 05:15:39;;;;;;;15.07;5.40;;;;;;;10.13;100.00;61888.81;5094415;28;20199;-71
2022/04/07 05:18:06;;;;;;;10.27;7.20;;;;;;;10.69;100.00;61943.69;5093933;28;20202;-73
2022/04/07 05:20:33;;;;;;;10.13;6.50;;;;;;;11.03;100.00;61982.69;5094031;28;20253;-73
2022/04/07 05:23:00;;;;;;;17.70;7.80;;;;;;;11.16;100.00;61993.00;5093951;28;20191;-73
2022/04/07 05:25:29;;;;;;;8.03;5.43;;;;;;;11.12;100.00;61991.78;5094432;28;20199;-71
2022/04/07 05:27:57;;;;;;;10.20;5.73;;;;;;;11.22;100.00;61999.41;5094052;28;20199;-72
2022/04/07 05:30:24;;;;;;;12.43;5.90;;;;;;;11.34;100.00;62012.81;5093755;28;20658;-73
2022/04/07 05:32:51;;;;;;;11.30;5.80;;;;;;;11.42;100.00;62026.50;5094010;28;20243;-71
2022/04/07 05:35:17;;;;;;;8.23;5.37;;;;;;;11.39;100.00;62023.28;5093878;28;20199;-73
2022/04/07 05:37:46;;;;;;;13.67;5.93;;;;;;;11.36;100.00;62014.44;5093760;28;20191;-72
2022/04/07 05:40:14;;;;;;;7.63;5.03;;;;;;;10.77;100.00;61949.72;5093645;28;20246;-73
2022/04/07 05:42:41;;;;;;;8.97;4.67;;;;;;;11.06;100.00;61985.38;5093916;28;20199;-71
2022/04/07 05:45:10;;;;;;;11.17;4.90;;;;;;;11.27;100.00;62004.78;5093476;28;20192;-71
2022/04/07 05:47:40;;;;;;;12.87;5.50;;;;;;;11.01;100.00;61978.00;5093752;28;20639;-71
2022/04/07 05:50:09;;;;;;;18.17;5.40;;;;;;;10.93;100.00;61968.88;5093632;28;20206;-71
2022/04/07 05:52:36;;;;;;;8.37;5.07;;;;;;;11.06;100.00;61982.81;5093546;28;20223;-72
2022/04/07 05:55:03;;;;;;;10.80;6.20;;;;;;;11.19;100.00;61996.75;5093436;28;20207;-72
2022/04/07 05:57:31;;;;;;;9.23;6.10;;;;;;;11.11;100.00;61990.19;5093322;28;20199;-71
2022/04/07 06:00:04;;;;;;;9.83;5.60;;;;;;;11.02;100.00;61976.53;5093306;28;20286;-73
2022/04/07 06:02:32;;;;;;;14.23;5.57;;;;;;;11.20;100.00;61997.28;5093060;28;20207;-70
2022/04/07 06:04:59;;;;;;;12.17;5.07;;;;;;;10.94;100.00;61973.03;5093120;28;20207;-73
2022/04/07 06:07:26;;;;;;;13.50;4.80;;;;;;;11.05;100.00;61982.28;5093234;28;20575;-72
2022/04/07 06:09:54;;;;;;;9.73;5.23;;;;;;;11.17;100.00;61992.03;5093200;28;20260;-72
2022/04/07 06:12:21;;;;;;;9.90;6.20;;;;;;;10.34;100.00;61906.22;5092903;28;20227;-72
2022/04/07 06:14:48;;;;;;;16.87;7.00;;;;;;;10.95;100.00;61974.09;5093002;28;20676;-71
2022/04/07 06:17:14;;;;;;;14.80;8.03;;;;;;;10.94;100.00;61970.50;5093175;28;20347;-71
2022/04/07 06:19:43;;;;;;;14.67;5.77;;;;;;;11.00;100.00;61976.38;5093069;28;20276;-72
2022/04/07 06:22:11;;;;;;;7.40;4.83;;;;;;;10.94;100.00;61969.94;5092850;28;20206;-72
2022/04/07 06:24:38;;;;;;;9.90;5.20;;;;;;;10.87;100.00;61970.09;5092628;28;20195;-72
2022/04/07 06:27:06;;;;;;;10.77;5.13;;;;;;;10.97;100.00;61973.69;5093556;28;20192;-72
2022/04/07 06:29:32;;;;;;;7.20;5.20;;;;;;;10.92;100.00;61967.81;5092696;28;20658;-71
2022/04/07 06:31:59;;;;;;;8.60;4.83;;;;;;;10.91;100.00;61964.19;5092105;28;20239;-72
2022/04/07 06:34:27;;;;;;;13.57;5.67;;;;;;;10.77;100.00;61952.28;5092858;28;20201;-71
2022/04/07 06:36:55;;;;;;;10.57;5.33;;;;;;;10.54;100.00;61927.63;5092747;28;20276;-71
2022/04/07 06:39:23;;;;;;;12.10;5.63;;;;;;;10.67;100.00;61946.66;5093055;28;20196;-72
2022/04/07 06:41:49;;;;;;;16.13;6.10;;;;;;;10.71;100.00;61943.28;5093341;28;20196;-72
2022/04/07 06:44:19;;;;;;;11.47;5.03;;;;;;;10.73;100.00;61953.06;5092655;28;20195;-72
2022/04/07 06:46:45;;;;;;;20.27;6.03;;;;;;;10.79;100.00;61956.97;5093182;28;20204;-72
2022/04/07 06:49:12;;;;;;;10.87;5.50;;;;;;;10.81;100.00;61956.56;5092381;28;20594;-72
2022/04/07 06:51:39;;;;;;;17.47;5.40;;;;;;;10.74;100.00;61956.16;5092422;28;20199;-72
2022/04/07 06:54:07;;;;;;;14.07;4.50;;;;;;;11.12;100.00;61984.16;5092290;28;20636;-72
2022/04/07 06:56:34;;;;;;;10.30;5.10;;;;;;;11.05;100.00;61984.81;5093746;28;20199;-72
2022/04/07 06:59:01;;;;;;;10.80;5.33;;;;;;;11.35;100.00;62018.47;5092524;28;20221;-71
2022/04/07 07:01:28;;;;;;;12.53;4.73;;;;;;;11.37;100.00;62018.06;5092122;28;20253;-72
2022/04/07 07:03:55;;;;;;;13.17;5.30;;;;;;;11.53;100.00;62033.19;5092146;28;20204;-73
2022/04/07 07:06:21;;;;;;;13.70;5.77;;;;;;;11.55;100.00;62039.91;5091967;28;20196;-71
2022/04/07 07:08:48;;;;;;;10.53;5.03;;;;;;;11.75;100.00;62056.28;5091912;28;20658;-71
2022/04/07 07:11:16;;;;;;;8.70;4.70;;;;;;;11.26;100.00;62001.16;5091827;28;20264;-71
2022/04/07 07:13:43;;;;;;;16.90;5.63;;;;;;;12.08;100.00;62093.69;5091792;28;20650;-70
2022/04/07 07:16:10;;;;;;;16.63;6.63;;;;;;;12.26;100.00;62116.09;5091930;28;20196;-72
2022/04/07 07:18:38;;;;;;;17.43;7.37;;;;;;;12.27;100.00;62109.50;5091892;28;20256;-71
2022/04/07 07:21:05;;;;;;;10.97;5.67;;;;;;;12.46;100.00;62132.44;5091742;28;20278;-71
2022/04/07 07:23:32;;;;;;;14.40;5.37;;;;;;;12.46;100.00;62132.44;5091252;28;20708;-72
2022/04/07 07:25:59;;;;;;;5.63;4.33;;;;;;;12.36;100.00;62121.72;5092019;28;20312;-71
2022/04/07 07:28:27;;;;;;;13.23;4.87;;;;;;;11.98;100.00;62080.94;5091817;28;20191;-71
2022/04/07 07:30:54;;;;;;;11.57;4.90;;;;;;;12.58;100.00;62145.34;5091770;28;20196;-72
2022/04/07 07:33:21;;;;;;;12.10;5.30;;;;;;;12.60;100.00;62152.59;5092242;28;20250;-72
2022/04/07 07:35:48;;;;;;;9.17;5.00;;;;;;;12.59;100.00;62148.44;5091634;28;20207;-72
2022/04/07 07:38:15;;;;;;;10.33;4.63;;;;;;;12.83;100.00;62171.09;5091494;28;20628;-72
2022/04/07 07:40:42;;;;;;;13.37;4.87;;;;;;;12.67;100.00;62155.00;5091830;28;20204;-72
2022/04/07 07:43:09;;;;;;;8.40;4.63;;;;;;;12.84;100.00;62172.19;5094833;28;20256;-71
2022/04/07 07:45:37;;;;;;;7.03;4.50;;;;;;;12.58;100.00;62153.00;5095563;28;20201;-72
2022/04/07 07:48:04;;;;;;;16.83;8.37;;;;;;;12.79;100.00;62169.34;5096230;28;20272;-71
2022/04/07 07:50:32;;;;;;;7.17;4.50;;;;;;;12.69;100.00;62159.69;5095394;28;20253;-70
2022/04/07 07:52:59;;;;;;;9.83;4.97;;;;;;;12.52;100.00;62138.88;5095549;28;20643;-72
2022/04/07 07:55:26;;;;;;;7.47;4.40;;;;;;;12.56;100.00;62142.63;5095605;28;20215;-73
2022/04/07 07:57:53;;;;;;;7.33;4.03;;;;;;;12.71;100.00;62158.75;5095519;28;20223;-71
2022/04/07 08:00:23;;;;;;;9.77;5.10;;;;;;;12.71;100.00;62159.28;5094985;28;20203;-71
2022/04/07 08:02:52;;;;;;;10.50;5.23;;;;;;;11.69;100.00;62049.84;5096090;28;20199;-70
2022/04/07 08:05:19;;;;;;;10.20;5.17;;;;;;;12.75;100.00;62163.03;5095880;28;20197;-71
2022/04/07 08:07:46;;;;;;;14.17;5.50;;;;;;;12.55;100.00;62142.13;5095329;28;20260;-72
2022/04/07 08:10:14;;;;;;;10.13;5.37;;;;;;;12.86;100.00;62174.31;5095726;28;20200;-71
2022/04/07 08:12:41;;;;;;;12.07;4.73;;;;;;;12.79;100.00;62166.81;5095933;28;20292;-73
2022/04/07 08:15:10;;;;;;;10.97;4.90;;;;;;;12.89;100.00;62178.06;5095104;28;20195;-72
2022/04/07 08:17:37;;;;;;;9.03;4.67;;;;;;;12.97;100.00;62191.78;5095642;28;20214;-71
2022/04/07 08:20:07;;;;;;;10.60;4.70;;;;;;;13.05;100.00;62192.72;5095245;28;20195;-72
2022/04/07 08:22:35;;;;;;;9.13;4.80;;;;;;;13.21;100.00;62212.47;5095533;28;20653;-71
2022/04/07 08:25:02;;;;;;;14.27;4.80;;;;;;;13.42;100.00;62237.06;5094329;28;20282;-72
2022/04/07 08:27:28;;;;;;;10.23;5.30;;;;;;;13.70;100.00;62264.03;5095632;28;20277;-71
2022/04/07 08:29:55;;;;;;;13.10;4.93;;;;;;;13.92;100.00;62282.56;5095780;28;20203;-72
2022/04/07 08:32:23;;;;;;;12.67;4.83;;;;;;;13.81;100.00;62271.25;5095071;28;20292;-72
2022/04/07 08:34:50;;;;;;;10.87;4.50;;;;;;;13.98;100.00;62294.13;5094764;28;20196;-72
2022/04/07 08:37:18;;;;;;;18.33;4.93;;;;;;;14.14;100.00;62311.88;5094467;28;20257;-72
2022/04/07 08:39:47;;;;;;;11.93;4.77;;;;;;;14.35;100.00;62331.34;5094821;28;20203;-72
2022/04/07 08:42:14;;;;;;;14.80;5.17;;;;;;;14.58;100.00;62358.66;5094757;28;20195;-73
2022/04/07 08:44:41;;;;;;;17.77;6.00;;;;;;;14.86;100.00;62390.81;5094454;28;20191;-71
2022/04/07 08:47:08;;;;;;;16.07;5.27;;;;;;;15.05;100.00;62406.13;5094703;28;20328;-73
2022/04/07 08:49:37;;;;;;;7.00;4.70;;;;;;;14.98;100.00;62401.69;5094775;28;20207;-71
2022/04/07 08:52:05;;;;;;;17.13;5.97;;;;;;;14.70;100.00;62371.03;5094502;28;20203;-72
2022/04/07 08:54:35;;;;;;;16.80;5.40;;;;;;;14.52;100.00;62352.22;5093394;28;20710;-71
2022/04/07 08:57:03;;;;;;;18.67;6.03;;;;;;;14.30;100.00;62329.09;5094360;28;20202;-71
2022/04/07 08:59:30;;;;;;;9.40;5.20;;;;;;;14.12;100.00;62309.72;5094621;28;20231;-72
2022/04/07 09:02:02;;;;;;;11.37;4.50;;;;;;;13.50;100.00;62245.66;5094130;28;20253;-72
2022/04/07 09:04:31;;;;;;;14.10;5.17;;;;;;;13.70;100.00;62261.47;5095265;28;20349;-71
2022/04/07 09:06:59;;;;;;;10.37;4.23;;;;;;;14.09;100.00;62303.91;5094352;28;20199;-71
2022/04/07 09:09:26;;;;;;;11.83;4.60;;;;;;;14.20;100.00;62315.22;5093920;28;20723;-72
2022/04/07 09:11:56;;;;;;;5.93;3.97;;;;;;;14.19;100.00;62317.22;5093431;28;20227;-70
2022/04/07 09:14:23;;;;;;;9.30;4.60;;;;;;;14.16;100.00;62316.56;5093851;28;20770;-72
2022/04/07 09:16:54;;;;;;;9.20;4.33;;;;;;;13.96;100.00;62292.53;5094107;28;20241;-71
2022/04/07 09:19:22;;;;;;;15.53;4.90;;;;;;;13.71;100.00;62265.63;5094506;28;20282;-72
2022/04/07 09:21:52;;;;;;;9.70;4.83;;;;;;;12.88;100.00;62176.47;5093880;28;20252;-72
2022/04/07 09:24:26;;;;;;;14.90;5.07;;;;;;;13.14;100.00;62204.41;5094176;28;20210;-71
2022/04/07 09:26:55;;;;;;;12.87;4.97;;;;;;;13.14;100.00;62210.06;5094110;28;20195;-72
2022/04/07 09:29:22;;;;;;;11.90;5.23;;;;;;;13.21;100.00;62217.03;5093671;28;20249;-71
2022/04/07 09:31:54;;;;;;;13.77;5.20;;;;;;;13.08;100.00;62201.06;5093986;28;20227;-71
2022/04/07 09:34:30;;;;;;;7.80;4.70;;;;;;;12.86;100.00;62171.78;5093580;28;20277;-72
2022/04/07 09:37:05;;;;;;;11.00;4.93;;;;;;;12.76;100.00;62163.59;5093806;28;20286;-73
2022/04/07 09:39:33;;;;;;;9.57;4.73;;;;;;;12.62;100.00;62154.75;5094092;28;20259;-71
2022/04/07 09:42:18;;;;;;;11.00;5.17;;;;;;;12.29;100.00;62119.31;5093642;28;20622;-72
2022/04/07 09:44:44;;;;;;;7.73;4.63;;;;;;;12.38;100.00;62123.88;5093258;28;20191;-72
2022/04/07 09:47:21;;;;;;;10.53;4.30;;;;;;;12.52;100.00;62141.44;5093394;28;20199;-73
2022/04/07 09:49:49;;;;;;;11.27;5.50;;;;;;;12.11;100.00;62100.00;5093469;28;20200;-72
2022/04/07 09:52:21;;;;;;;14.63;4.63;;;;;;;12.20;100.00;62104.53;5092968;28;20743;-72
2022/04/07 09:54:51;;;;;;;16.93;5.40;;;;;;;12.29;100.00;62114.22;5093651;28;20231;-72
2022/04/07 09:57:21;;;;;;;15.73;5.60;;;;;;;12.11;100.00;62097.47;5093777;28;20278;-72
2022/04/07 09:59:48;;;;;;;18.17;6.03;;;;;;;12.12;100.00;62095.97;5093266;28;20196;-72
2022/04/07 10:02:18;;;;;;;15.33;7.07;;;;;;;11.77;100.00;62063.53;5093144;28;20202;-71
2022/04/07 10:04:45;;;;;;;13.80;5.30;;;;;;;12.01;100.00;62084.16;5092756;28;20200;-72
2022/04/07 10:07:13;;;;;;;13.43;5.47;;;;;;;11.86;100.00;62070.63;5092643;28;20199;-73
2022/04/07 10:09:42;;;;;;;11.10;5.90;;;;;;;11.21;100.00;61998.38;5092546;28;20203;-72
2022/04/07 10:12:11;;;;;;;9.23;5.50;;;;;;;11.29;100.00;62004.38;5092841;28;20215;-73
2022/04/07 10:14:39;;;;;;;15.40;6.07;;;;;;;11.78;100.00;62060.03;5092854;28;20241;-73
2022/04/07 10:17:10;;;;;;;18.90;4.80;;;;;;;11.61;100.00;62038.69;5092891;28;20629;-72
2022/04/07 10:19:45;;;;;;;17.33;5.70;;;;;;;10.80;100.00;61957.50;5092822;28;20202;-72
2022/04/07 10:22:39;;;;;;;20.30;4.97;;;;;;;10.86;100.00;61961.91;5092570;28;20257;-72
2022/04/07 10:25:09;;;;;;;16.83;5.07;;;;;;;10.13;100.00;61883.72;5076145;28;20741;-73
2022/04/07 10:27:48;;;;;;;16.00;4.60;;;;;;;10.56;100.00;61929.78;5092992;28;20249;-73
2022/04/07 10:30:17;;;;;;;16.13;4.97;;;;;;;10.60;100.00;61931.50;5092995;28;20438;-72
2022/04/07 10:32:45;;;;;;;19.87;5.53;;;;;;;10.23;100.00;61894.41;5092401;28;20669;-73
2022/04/07 10:35:29;;;;;;;14.23;5.60;;;;;;;10.41;100.00;61911.16;5092591;28;20227;-74
2022/04/07 10:37:57;;;;;;;20.37;5.60;;;;;;;10.48;100.00;61923.75;5092801;28;20609;-72
2022/04/07 10:40:34;;;;;;;13.03;7.13;;;;;;;10.38;100.00;61910.50;5091296;28;20214;-73
2022/04/07 10:43:18;;;;;;;24.60;9.00;;;;;;;10.31;100.00;61903.00;5092254;28;20219;-73
2022/04/07 10:45:48;;;;;;;25.00;10.07;;;;;;;10.25;100.00;61899.13;5092453;28;20893;-73
2022/04/07 10:48:24;;;;;;;27.53;10.17;;;;;;;10.70;100.00;61944.22;5092751;28;20203;-72
2022/04/07 10:50:53;;;;;;;22.53;10.03;;;;;;;9.91;100.00;61860.13;5092195;28;20198;-71
2022/04/07 10:53:27;;;;;;;18.83;9.63;;;;;;;10.93;100.00;61968.88;5092382;28;20582;-71
2022/04/07 10:55:56;;;;;;;19.53;12.47;;;;;;;11.10;100.00;61986.56;5091996;28;20583;-73
2022/04/07 10:58:40;;;;;;;17.73;12.00;;;;;;;11.19;100.00;61993.66;5092522;28;20226;-72
2022/04/07 11:01:14;;;;;;;21.73;12.73;;;;;;;11.20;100.00;61997.28;5092310;28;20195;-72
2022/04/07 11:03:42;;;;;;;19.37;10.67;;;;;;;11.35;100.00;62013.38;5091228;28;20200;-71
2022/04/07 11:06:11;;;;;;;17.60;10.03;;;;;;;11.01;100.00;61977.44;5092830;28;20195;-71
2022/04/07 11:08:38;;;;;;;26.10;12.60;;;;;;;11.51;100.00;62031.03;5092080;28;20652;-73
2022/04/07 11:11:05;;;;;;;20.07;12.70;;;;;;;11.59;100.00;62036.56;5092179;28;20241;-72
2022/04/07 11:13:59;;;;;;;19.00;12.10;;;;;;;11.68;100.00;62048.75;5092779;28;20440;-72
2022/04/07 11:16:36;;;;;;;21.23;12.50;;;;;;;11.88;100.00;62070.75;5089952;28;20195;-72
2022/04/07 11:19:23;;;;;;;22.23;11.80;;;;;;;12.07;100.00;62090.06;5091939;28;20199;-72
2022/04/07 11:21:51;;;;;;;25.90;12.73;;;;;;;12.04;100.00;62089.38;5092206;28;20199;-72
2022/04/07 11:24:28;;;;;;;18.07;10.83;;;;;;;12.48;100.00;62137.16;5091668;28;20200;-73
2022/04/07 11:26:56;;;;;;;13.80;9.03;;;;;;;12.36;100.00;62121.72;5090929;28;20207;-73